Latest Coastal Weather Observations for Redcliffe

IDQ60701

Issued at 3:21 am EST Sunday 1 March 2015 (issued every 10 minutes, with the page automatically refreshed every 10 minutes)

About coastal observations | Map of coastal stations | Coastal observations for QLD | Marine services | Other Formats
Station Details ID: 040958 Name: REDCLIFFE Lat: -27.22 Lon: 153.09 Height: 12.6 m
Data from the previous 72 hours. | See also: Recent months at Redcliffe
Date/Time
EST
Temp

°C
Wind Pressure Rain
since 9am
mm
Weather Cloud Vis
km
Sea
Height
m
Swell
Dir
 
Speed
knots
Gust
knots
hPa Trend Height
m
Period
s
Dir
01/03:00am 24.3 NE 6 8 1009.5 - 0.0 - - - - - - -
01/02:30am 24.5 NE 7 9 1009.6 - 0.0 - - - - - - -
01/02:00am 24.7 NE 7 9 1009.6 - 0.0 - - - - - - -
01/01:30am 24.5 NE 9 10 1009.9 - 0.0 - - - - - - -
01/01:00am 24.7 NE 7 9 1010.3 - 0.0 - - - - - - -
01/12:30am 24.9 NE 10 11 1010.6 - 0.0 - - - - - - -
 
Date/Time
EST
Temp

°C
Wind Pressure Rain
since 9am
mm
Weather Cloud Vis
km
Sea
Height
m
Swell
Dir
 
Speed
knots
Gust
knots
hPa Trend Height
m
Period
s
Dir
28/11:30pm 25.0 ENE 9 11 1011.1 - 0.0 - - - - - - -
28/11:00pm 25.0 ENE 8 10 1011.4 - 0.0 - - - - - - -
28/10:30pm 24.9 NE 6 8 1011.5 - 0.0 - - - - - - -
28/10:00pm 25.1 ENE 7 8 1011.4 - 0.0 - - - - - - -
28/09:30pm 25.2 NE 8 10 1011.3 - 0.0 - - - - - - -
28/09:00pm 25.3 ENE 9 11 1011.3 - 0.0 - - - - - - -
28/08:30pm 25.4 NE 9 10 1011.1 - 0.0 - - - - - - -
28/08:00pm 25.4 NE 10 12 1011.0 - 0.0 - - - - - - -
28/07:30pm 25.5 ENE 13 15 1010.5 - 0.0 - - - - - - -
28/07:00pm 25.7 ENE 11 13 1010.2 - 0.0 - - - - - - -
28/06:30pm 25.8 ENE 10 12 1009.9 - 0.0 - - - - - - -
28/06:00pm 26.0 ENE 11 12 1009.5 - 0.0 - - - - - - -
28/05:30pm 26.1 ENE 11 15 1009.2 - 0.0 - - - - - - -
28/05:00pm 26.5 ENE 11 14 1009.0 - 0.0 - - - - - - -
28/04:30pm 27.1 E 11 14 1009.0 - 0.0 - - - - - - -
28/04:00pm 27.3 NE 10 13 1009.0 - 0.0 - - - - - - -
28/03:30pm 26.9 NE 12 16 1008.8 - 0.0 - - - - - - -
28/03:00pm 27.3 NE 10 11 1009.0 - 0.0 - - - - - - -
28/02:30pm 27.3 ENE 9 13 1009.0 - 0.0 - - - - - - -
28/02:00pm 27.5 ENE 12 14 1009.3 - 0.0 - - - - - - -
28/01:30pm 27.1 ENE 11 14 1009.6 - 0.0 - - - - - - -
28/01:00pm 27.3 E 9 10 1009.7 - 0.0 - - - - - - -
28/12:30pm 27.0 ESE 10 11 1010.1 - 0.0 - - - - - - -
28/12:00pm 27.6 E 9 12 1010.2 - 0.0 - - - - - - -
28/11:30am 27.8 E 8 9 1010.5 - 0.0 - - - - - - -
28/11:00am 28.4 ENE 5 6 1010.8 - 0.0 - - - - - - -
28/10:30am 27.5 ENE 5 5 1011.0 - 0.0 - - - - - - -
28/10:00am 25.7 ESE 5 5 1011.2 - 0.0 - - - - - - -
28/09:30am 25.8 SE 5 7 1011.2 - 0.0 - - - - - - -
28/09:00am 25.8 SSE 6 7 1011.1 - 0.0 - - - - - - -
28/08:30am 25.7 SSE 6 7 1011.0 - 0.0 - - - - - - -
28/08:00am 25.6 SW 3 6 1010.9 - 0.0 - - - - - - -
28/07:30am 24.0 SW 5 7 1010.6 - 0.0 - - - - - - -
28/07:00am 23.1 SW 6 7 1010.4 - 0.0 - - - - - - -
28/06:30am 22.9 SW 6 7 1010.2 - 0.0 - - - - - - -
28/06:00am 22.5 SW 6 7 1009.9 - 0.0 - - - - - - -
28/05:30am 22.6 SW 6 8 1009.6 - 0.0 - - - - - - -
28/05:00am 22.9 SW 5 7 1009.4 - 0.0 - - - - - - -
28/04:30am 23.0 WSW 6 7 1009.3 - 0.0 - - - - - - -
28/04:00am 22.9 WSW 4 5 1009.1 - 0.0 - - - - - - -
28/03:30am 22.9 W 4 5 1009.0 - 0.0 - - - - - - -
28/03:00am 23.3 NW 4 5 1009.1 - 0.0 - - - - - - -
28/02:30am 24.0 N 4 5 1009.4 - 0.0 - - - - - - -
28/02:00am 24.4 NE 10 12 1009.4 - 0.0 - - - - - - -
28/01:30am 24.3 NNE 5 6 1009.5 - 0.0 - - - - - - -
28/01:00am 24.5 N 5 7 1009.4 - 0.0 - - - - - - -
28/12:30am 24.9 NNE 7 8 1009.6 - 0.0 - - - - - - -
28/12:00am 25.2 NE 8 9 1010.0 - 0.0 - - - - - - -
 
Date/Time
EST
Temp

°C
Wind Pressure Rain
since 9am
mm
Weather Cloud Vis
km
Sea
Height
m
Swell
Dir
 
Speed
knots
Gust
knots
hPa Trend Height
m
Period
s
Dir
27/11:30pm 25.0 NNE 8 10 1009.8 - 0.0 - - - - - - -
27/11:00pm 25.0 NE 8 10 1010.0 - 0.0 - - - - - - -
27/10:30pm 25.0 NE 9 11 1009.8 - 0.0 - - - - - - -
27/10:00pm 25.3 NE 9 10 1010.1 - 0.0 - - - - - - -
27/09:30pm 25.1 ENE 10 13 1009.9 - 0.0 - - - - - - -
27/09:00pm 25.2 ENE 10 13 1009.6 - 0.0 - - - - - - -
27/08:30pm 25.3 ENE 9 11 1009.7 - 0.0 - - - - - - -
27/08:00pm 25.4 ENE 11 14 1009.5 - 0.0 - - - - - - -
27/07:30pm 25.4 NE 10 12 1009.0 - 0.0 - - - - - - -
27/07:00pm 25.5 ENE 12 14 1008.5 - 0.0 - - - - - - -
27/06:30pm 25.6 NE 11 14 1007.9 - 0.0 - - - - - - -
27/06:00pm 25.7 NE 11 14 1008.2 - 0.0 - - - - - - -
27/05:30pm 26.1 NE 12 14 1007.5 - 0.0 - - - - - - -
27/05:00pm 26.5 NE 11 14 1007.1 - 0.0 - - - - - - -
27/04:30pm 26.2 NE 11 14 1006.9 - 0.0 - - - - - - -
27/04:00pm 26.6 NE 11 12 1006.7 - 0.0 - - - - - - -
27/03:30pm 26.8 NE 9 11 1006.9 - 0.0 - - - - - - -
27/03:00pm 27.2 ENE 9 11 1006.8 - 0.0 - - - - - - -
27/02:30pm 27.4 ENE 9 10 1007.0 - 0.0 - - - - - - -
27/02:00pm 27.0 ENE 9 10 1007.2 - 0.0 - - - - - - -
27/01:30pm 27.5 ENE 9 10 1007.5 - 0.0 - - - - - - -
27/01:00pm 27.3 ENE 7 8 1007.7 - 0.0 - - - - - - -
27/12:30pm 26.9 E 7 8 1008.0 - 0.0 - - - - - - -
27/12:00pm 26.9 E 6 8 1008.2 - 0.0 - - - - - - -
27/11:30am 27.9 ESE 6 7 1008.6 - 0.0 - - - - - - -
27/11:00am 27.4 ENE 5 6 1008.8 - 0.0 - - - - - - -
27/10:30am 26.4 E 4 5 1009.2 - 0.0 - - - - - - -
27/10:00am 25.3 NNW 5 7 1009.1 - 0.0 - - - - - - -
27/09:30am 24.8 NW 5 8 1009.2 - 0.0 - - - - - - -
27/09:00am 23.4 WNW 6 9 1009.4 - 2.0 - - - - - - -
27/08:30am 22.7 WNW 7 8 1009.4 - 2.0 - - - - - - -
27/08:00am 22.4 WSW 5 7 1009.7 - 2.0 - - - - - - -
27/07:30am 22.6 E 5 6 1009.3 - 1.8 - - - - - - -
27/07:00am 22.7 NNE 7 11 1009.9 - 1.2 - - - - - - -
27/06:30am 22.7 SSW 6 9 1009.9 - 0.4 - - - - - - -
27/06:00am 23.0 W 6 8 1009.5 - 0.0 - - - - - - -
27/05:30am 23.2 WNW 7 8 1009.2 - 0.0 - - - - - - -
27/05:00am 23.4 N 5 7 1008.8 - 0.0 - - - - - - -
27/04:30am 23.8 ENE 6 8 1007.9 - 0.0 - - - - - - -
27/04:00am 24.3 NE 7 8 1007.6 - 0.0 - - - - - - -
27/03:30am 24.2 NE 7 9 1007.3 - 0.0 - - - - - - -
27/03:00am 24.2 NNE 7 9 1007.4 - 0.0 - - - - - - -
27/02:30am 24.3 NE 9 10 1007.4 - 0.0 - - - - - - -
27/02:00am 24.4 NE 9 11 1007.6 - 0.0 - - - - - - -
27/01:30am 24.3 ENE 9 10 1007.5 - 0.0 - - - - - - -
27/01:00am 24.6 ENE 9 10 1007.7 - 0.0 - - - - - - -
27/12:30am 24.4 ENE 9 10 1007.9 - 0.0 - - - - - - -
27/12:00am 24.4 ENE 8 9 1008.2 - 0.0 - - - - - - -
 
Date/Time
EST
Temp

°C
Wind Pressure Rain
since 9am
mm
Weather Cloud Vis
km
Sea
Height
m
Swell
Dir
 
Speed
knots
Gust
knots
hPa Trend Height
m
Period
s
Dir
26/11:30pm 24.5 ENE 7 9 1008.6 - 0.0 - - - - - - -
26/11:00pm 24.6 ENE 7 9 1009.0 - 0.0 - - - - - - -
26/10:30pm 24.9 NE 7 8 1009.1 - 0.0 - - - - - - -
26/10:00pm 24.8 NE 9 11 1009.1 - 0.0 - - - - - - -
26/09:30pm 24.8 ENE 9 11 1008.8 - 0.0 - - - - - - -
26/09:00pm 24.8 ENE 8 9 1009.1 - 0.0 - - - - - - -
26/08:30pm 24.9 ENE 9 10 1008.7 - 0.0 - - - - - - -
26/08:00pm 25.0 E 9 11 1008.9 - 0.0 - - - - - - -
26/07:30pm 25.0 E 8 10 1008.7 - 0.0 - - - - - - -
26/07:00pm 25.0 E 10 13 1008.1 - 0.0 - - - - - - -
26/06:30pm 25.2 E 12 14 1007.6 - 0.0 - - - - - - -
26/06:00pm 25.4 E 12 14 1007.7 - 0.0 - - - - - - -
26/05:30pm 25.6 E 13 15 1007.3 - 0.0 - - - - - - -
26/05:00pm 25.9 E 13 14 1007.1 - 0.0 - - - - - - -
26/04:30pm 26.4 E 11 13 1007.0 - 0.0 - - - - - - -
26/04:00pm 26.7 E 12 14 1007.1 - 0.0 - - - - - - -
26/03:30pm 26.9 E 11 14 1007.0 - 0.0 - - - - - - -
26/03:00pm 26.7 ESE 10 13 1007.1 - 0.0 - - - - - - -
26/02:30pm 26.9 E 9 10 1007.3 - 0.0 - - - - - - -
26/02:00pm 26.9 E 9 10 1007.8 - 0.0 - - - - - - -
26/01:30pm 26.7 E 8 10 1008.2 - 0.0 - - - - - - -
26/01:00pm 26.9 ESE 7 8 1008.7 - 0.0 - - - - - - -
26/12:30pm 26.8 ESE 8 9 1008.8 - 0.0 - - - - - - -
26/12:00pm 27.3 ESE 7 8 1009.1 - 0.0 - - - - - - -
26/11:30am 26.7 ESE 7 9 1009.4 - 0.0 - - - - - - -
26/11:00am 27.3 SE 8 9 1009.8 - 0.0 - - - - - - -
26/10:30am 26.8 SSE 9 10 1010.0 - 0.0 - - - - - - -
26/10:00am 26.5 SSE 9 10 1009.9 - 0.0 - - - - - - -
26/09:30am 26.2 SSE 7 9 1010.0 - 0.0 - - - - - - -
26/09:00am 26.5 S 8 10 1010.1 - 0.0 - - - - - - -
26/08:30am 25.0 S 10 12 1010.0 - 0.0 - - - - - - -
26/08:00am 24.1 S 8 10 1009.8 - 0.0 - - - - - - -
26/07:30am 24.1 SSW 8 11 1009.7 - 0.0 - - - - - - -
26/07:00am 22.8 SW 8 12 1009.7 - 0.0 - - - - - - -
26/06:30am 21.8 SSW 8 10 1009.3 - 0.0 - - - - - - -
26/06:00am 20.9 SSW 8 10 1008.9 - 0.0 - - - - - - -
26/05:30am 21.0 SSW 7 9 1008.7 - 0.0 - - - - - - -
26/05:00am 21.3 SSW 7 10 1008.9 - 0.0 - - - - - - -
26/04:30am 21.6 SSW 7 9 1008.8 - 0.0 - - - - - - -
26/04:00am 21.8 S 7 9 1008.5 - 0.0 - - - - - - -
26/03:30am 21.8 SSW 8 11 1008.9 - 0.0 - - - - - - -

Other Formats:

Comma delimited format used in spreadsheet applications
http://www.bom.gov.au/fwo/IDQ60701/IDQ60701.95591.axf

JavaScript Object Notation format (JSON) in row-major order
http://www.bom.gov.au/fwo/IDQ60701/IDQ60701.95591.json